createdAt,value
2022-12-31T00:01:33.079Z,2.54
2022-12-31T00:03:59.821Z,2.63
2022-12-31T00:06:32.394Z,2.62
2022-12-31T00:09:00.843Z,2.68
2022-12-31T00:11:29.599Z,2.30
2022-12-31T00:13:56.546Z,2.25
2022-12-31T00:16:27.259Z,2.37
2022-12-31T00:18:56.572Z,2.13
2022-12-31T00:21:23.012Z,2.62
2022-12-31T00:23:49.462Z,2.59
2022-12-31T00:26:20.285Z,2.41
2022-12-31T00:28:48.268Z,2.34
2022-12-31T00:31:21.434Z,2.11
2022-12-31T00:33:48.834Z,2.13
2022-12-31T00:36:18.686Z,2.38
2022-12-31T00:38:47.632Z,2.33
2022-12-31T00:41:15.802Z,2.19
2022-12-31T00:43:42.880Z,2.01
2022-12-31T00:46:11.014Z,2.28
2022-12-31T00:48:38.896Z,2.37
2022-12-31T00:51:08.213Z,2.30
2022-12-31T00:53:34.777Z,2.09
2022-12-31T00:56:07.856Z,2.03
2022-12-31T00:58:35.308Z,2.26
2022-12-31T01:01:17.931Z,2.25
2022-12-31T01:03:45.798Z,2.38
2022-12-31T01:06:12.299Z,2.28
2022-12-31T01:08:38.948Z,2.48
2022-12-31T01:11:06.518Z,2.72
2022-12-31T01:13:33.292Z,2.41
2022-12-31T01:16:07.010Z,2.40
2022-12-31T01:18:33.569Z,2.48
2022-12-31T01:21:02.774Z,2.72
2022-12-31T01:23:29.771Z,2.57
2022-12-31T01:25:56.520Z,2.81
2022-12-31T01:28:22.962Z,2.57
2022-12-31T01:30:49.443Z,2.53
2022-12-31T01:33:15.932Z,2.59
2022-12-31T01:35:42.383Z,2.69
2022-12-31T01:38:08.832Z,2.58
2022-12-31T01:40:40.717Z,2.42
2022-12-31T01:43:19.939Z,2.44
2022-12-31T01:45:50.769Z,2.45
2022-12-31T01:48:24.133Z,2.50
2022-12-31T01:50:53.543Z,2.54
2022-12-31T01:53:21.368Z,2.38
2022-12-31T01:55:50.394Z,2.50
2022-12-31T01:58:27.507Z,2.31
2022-12-31T02:00:55.221Z,2.15
2022-12-31T02:03:25.882Z,2.29
2022-12-31T02:06:16.784Z,2.49
2022-12-31T02:08:43.918Z,2.34
2022-12-31T02:11:26.774Z,2.20
2022-12-31T02:13:58.865Z,2.21
2022-12-31T02:16:40.486Z,2.39
2022-12-31T02:19:37.203Z,2.44
2022-12-31T02:22:10.251Z,2.53
2022-12-31T02:25:23.304Z,2.33
2022-12-31T02:28:17.231Z,2.18
2022-12-31T02:30:52.422Z,2.20
2022-12-31T02:33:50.293Z,2.46
2022-12-31T02:36:23.889Z,2.07
2022-12-31T02:38:51.723Z,2.06
2022-12-31T02:41:20.453Z,2.29
2022-12-31T02:43:46.955Z,2.23
2022-12-31T02:46:31.060Z,2.05
2022-12-31T02:49:30.712Z,2.14
2022-12-31T02:52:07.636Z,2.23
2022-12-31T02:55:02.613Z,2.13
2022-12-31T02:57:51.348Z,2.11
2022-12-31T03:00:18.252Z,2.10
2022-12-31T03:02:48.001Z,2.14
2022-12-31T03:05:19.357Z,2.20
2022-12-31T03:07:46.304Z,2.00
2022-12-31T03:10:13.318Z,2.09
2022-12-31T03:12:43.626Z,2.16
2022-12-31T03:15:11.760Z,2.21
2022-12-31T03:17:38.219Z,1.99
2022-12-31T03:20:05.099Z,1.87
2022-12-31T03:22:33.167Z,2.16
2022-12-31T03:25:03.802Z,2.13
2022-12-31T03:27:30.273Z,1.99
2022-12-31T03:29:56.712Z,2.04
2022-12-31T03:32:23.179Z,1.98
2022-12-31T03:34:49.646Z,1.89
2022-12-31T03:37:16.091Z,1.86
2022-12-31T03:39:42.535Z,2.15
2022-12-31T03:42:08.968Z,1.98
2022-12-31T03:44:35.563Z,1.81
2022-12-31T03:47:02.061Z,1.98
2022-12-31T03:49:28.520Z,1.99
2022-12-31T03:51:54.992Z,1.80
2022-12-31T03:54:21.498Z,1.85
2022-12-31T03:56:49.544Z,1.95
2022-12-31T03:59:16.134Z,2.18
2022-12-31T04:01:42.687Z,1.81
2022-12-31T04:04:09.177Z,1.81
2022-12-31T04:06:35.659Z,1.83
2022-12-31T04:09:02.124Z,1.83
2022-12-31T04:11:28.608Z,1.80
2022-12-31T04:13:55.074Z,1.76
2022-12-31T04:16:21.589Z,1.74
2022-12-31T04:18:48.060Z,1.76
2022-12-31T04:21:14.536Z,1.64
2022-12-31T04:23:40.992Z,1.76
2022-12-31T04:26:07.561Z,1.76
2022-12-31T04:28:34.098Z,1.67
2022-12-31T04:31:00.575Z,1.68
2022-12-31T04:33:27.016Z,1.68
2022-12-31T04:35:53.514Z,1.59
2022-12-31T04:38:19.971Z,1.94
2022-12-31T04:40:46.448Z,1.67
2022-12-31T04:43:12.898Z,1.73
2022-12-31T04:45:39.397Z,1.74
2022-12-31T04:48:06.120Z,1.80
2022-12-31T04:50:32.576Z,1.52
2022-12-31T04:52:59.052Z,1.95
2022-12-31T04:55:25.557Z,1.87
2022-12-31T04:57:52.039Z,1.80
2022-12-31T05:00:18.502Z,1.78
2022-12-31T05:02:46.030Z,2.05
2022-12-31T05:05:12.627Z,1.78
2022-12-31T05:07:39.101Z,1.69
2022-12-31T05:10:06.162Z,1.86
2022-12-31T05:12:32.659Z,1.59
2022-12-31T05:14:59.116Z,1.62
2022-12-31T05:17:25.558Z,1.96
2022-12-31T05:19:52.029Z,1.74
2022-12-31T05:22:18.493Z,1.84
2022-12-31T05:24:44.935Z,1.75
2022-12-31T05:27:11.383Z,1.92
2022-12-31T05:29:37.845Z,1.60
2022-12-31T05:32:04.376Z,1.67
2022-12-31T05:34:30.894Z,1.63
2022-12-31T05:36:57.420Z,1.80
2022-12-31T05:39:23.881Z,1.68
2022-12-31T05:41:50.351Z,1.86
2022-12-31T05:44:16.807Z,1.79
2022-12-31T05:46:43.283Z,1.70
2022-12-31T05:49:09.751Z,1.79
2022-12-31T05:51:36.221Z,1.65
2022-12-31T05:54:02.671Z,1.68
2022-12-31T05:56:29.155Z,1.74
2022-12-31T05:58:56.132Z,1.69
2022-12-31T06:01:22.606Z,1.77
2022-12-31T06:03:49.186Z,1.72
2022-12-31T06:06:15.751Z,1.57
2022-12-31T06:08:42.222Z,1.82
2022-12-31T06:11:08.714Z,1.84
2022-12-31T06:13:35.368Z,1.57
2022-12-31T06:16:07.191Z,1.50
2022-12-31T06:18:33.670Z,1.48
2022-12-31T06:21:00.154Z,1.56
2022-12-31T06:23:27.015Z,1.56
2022-12-31T06:25:53.524Z,1.56
2022-12-31T06:28:20.675Z,1.72
2022-12-31T06:30:48.340Z,1.54
2022-12-31T06:33:14.834Z,1.47
2022-12-31T06:35:41.286Z,1.45
2022-12-31T06:38:07.771Z,1.58
2022-12-31T06:40:37.393Z,1.59
2022-12-31T06:43:03.861Z,1.70
2022-12-31T06:45:30.319Z,1.78
2022-12-31T06:47:56.786Z,1.56
2022-12-31T06:50:23.238Z,1.99
2022-12-31T06:52:49.695Z,1.73
2022-12-31T06:55:16.488Z,1.66
2022-12-31T06:57:43.218Z,1.80
2022-12-31T07:00:10.962Z,1.85
2022-12-31T07:02:58.746Z,1.64
2022-12-31T07:05:54.343Z,1.64
2022-12-31T07:08:52.232Z,1.56
2022-12-31T07:11:23.435Z,1.44
2022-12-31T07:14:21.579Z,1.51
2022-12-31T07:17:00.886Z,1.93
2022-12-31T07:19:57.316Z,1.66
2022-12-31T07:22:24.587Z,1.70
2022-12-31T07:24:51.341Z,1.72
2022-12-31T07:27:43.654Z,1.58
2022-12-31T07:30:24.837Z,1.96
2022-12-31T07:33:25.123Z,2.25
2022-12-31T07:36:09.176Z,1.77
2022-12-31T07:38:35.611Z,1.69
2022-12-31T07:41:35.715Z,1.77
2022-12-31T07:44:42.445Z,1.71
2022-12-31T07:47:21.193Z,1.85
2022-12-31T07:49:48.221Z,1.58
2022-12-31T07:52:15.004Z,1.99
2022-12-31T07:54:41.456Z,1.91
2022-12-31T07:57:10.214Z,1.73
2022-12-31T07:59:56.177Z,2.92
2022-12-31T08:02:45.784Z,3.12
2022-12-31T08:05:22.499Z,1.94
2022-12-31T08:08:20.285Z,1.92
2022-12-31T08:11:16.081Z,1.82
2022-12-31T08:13:42.728Z,1.74
2022-12-31T08:16:14.160Z,1.98
2022-12-31T08:18:41.035Z,1.94
2022-12-31T08:21:19.220Z,1.57
2022-12-31T08:24:07.477Z,1.43
2022-12-31T08:27:04.924Z,1.11
2022-12-31T08:29:45.876Z,1.48
2022-12-31T08:32:36.301Z,1.45
2022-12-31T08:35:28.281Z,1.43
2022-12-31T08:38:12.086Z,1.45
2022-12-31T08:40:49.209Z,1.46
2022-12-31T08:43:43.182Z,1.58
2022-12-31T08:46:33.567Z,1.66
2022-12-31T08:49:00.282Z,2.15
2022-12-31T08:51:27.359Z,2.34
2022-12-31T08:53:54.259Z,2.19
2022-12-31T08:56:50.738Z,1.78
2022-12-31T08:59:43.388Z,1.50
2022-12-31T09:02:23.326Z,3.28
2022-12-31T09:05:27.243Z,2.74
2022-12-31T09:08:03.284Z,2.43
2022-12-31T09:10:32.327Z,2.77
2022-12-31T09:13:17.281Z,1.93
2022-12-31T09:16:22.831Z,1.66
2022-12-31T09:18:49.295Z,2.35
2022-12-31T09:21:16.253Z,2.17
2022-12-31T09:23:43.036Z,1.71
2022-12-31T09:26:34.983Z,1.59
2022-12-31T09:29:26.358Z,1.73
2022-12-31T09:32:20.945Z,1.83
2022-12-31T09:34:56.341Z,1.58
2022-12-31T09:37:44.441Z,1.76
2022-12-31T09:40:50.717Z,1.66
2022-12-31T09:43:35.239Z,2.90
2022-12-31T09:46:52.255Z,3.85
2022-12-31T09:49:33.943Z,6.34
2022-12-31T09:52:21.210Z,2.11
2022-12-31T09:55:00.201Z,1.89
2022-12-31T09:57:37.113Z,2.18
2022-12-31T10:00:05.891Z,1.96
2022-12-31T10:02:59.780Z,1.80
2022-12-31T10:05:32.688Z,2.09
2022-12-31T10:08:24.998Z,2.05
2022-12-31T10:11:14.494Z,1.49
2022-12-31T10:13:59.490Z,2.17
2022-12-31T10:16:57.541Z,2.31
2022-12-31T10:19:35.549Z,1.81
2022-12-31T10:22:44.773Z,1.44
2022-12-31T10:25:38.815Z,1.57
2022-12-31T10:28:14.838Z,1.60
2022-12-31T10:30:57.097Z,1.61
2022-12-31T10:33:43.223Z,1.72
2022-12-31T10:36:25.510Z,2.03
2022-12-31T10:39:24.030Z,2.09
2022-12-31T10:42:21.574Z,1.77
2022-12-31T10:45:19.604Z,2.50
2022-12-31T10:48:07.577Z,1.61
2022-12-31T10:51:02.602Z,1.59
2022-12-31T10:54:00.841Z,2.00
2022-12-31T10:56:33.129Z,2.03
2022-12-31T10:59:37.436Z,1.96
2022-12-31T11:02:35.136Z,1.49
2022-12-31T11:05:24.065Z,2.09
2022-12-31T11:07:59.595Z,1.70
2022-12-31T11:10:35.146Z,1.65
2022-12-31T11:13:35.985Z,1.59
2022-12-31T11:16:40.398Z,2.06
2022-12-31T11:19:21.387Z,1.75
2022-12-31T11:22:05.232Z,1.96
2022-12-31T11:24:55.256Z,2.05
2022-12-31T11:27:58.862Z,2.21
2022-12-31T11:30:37.209Z,1.99
2022-12-31T11:33:15.600Z,2.15
2022-12-31T11:36:10.854Z,1.57
2022-12-31T11:38:51.825Z,1.25
2022-12-31T11:41:35.033Z,1.30
2022-12-31T11:44:39.089Z,1.37
2022-12-31T11:47:28.081Z,1.17
2022-12-31T11:50:20.971Z,1.11
2022-12-31T11:53:12.208Z,1.21
2022-12-31T11:56:06.482Z,1.22
2022-12-31T11:58:33.193Z,1.32
2022-12-31T12:01:10.799Z,1.33
2022-12-31T12:03:38.981Z,1.44
2022-12-31T12:06:05.539Z,1.47
2022-12-31T12:08:33.044Z,1.39
2022-12-31T12:11:07.308Z,1.38
2022-12-31T12:13:34.481Z,1.43
2022-12-31T12:16:07.167Z,1.36
2022-12-31T12:18:39.396Z,1.23
2022-12-31T12:21:10.651Z,1.45
2022-12-31T12:23:37.760Z,1.73
2022-12-31T12:26:04.769Z,1.69
2022-12-31T12:28:44.640Z,1.36
2022-12-31T12:31:21.003Z,1.40
2022-12-31T12:33:50.058Z,1.64
2022-12-31T12:36:19.229Z,1.60
2022-12-31T12:38:45.846Z,1.36
2022-12-31T12:41:21.141Z,1.25
2022-12-31T12:43:47.696Z,1.14
2022-12-31T12:46:22.925Z,1.20
2022-12-31T12:48:56.162Z,1.60
2022-12-31T12:51:41.262Z,1.91
2022-12-31T12:54:31.329Z,1.63
2022-12-31T12:57:14.480Z,1.50
2022-12-31T13:00:02.914Z,1.54
2022-12-31T13:03:01.457Z,2.44
2022-12-31T13:05:38.341Z,1.69
2022-12-31T13:08:35.704Z,1.46
2022-12-31T13:11:20.138Z,1.47
2022-12-31T13:13:46.528Z,1.75
2022-12-31T13:16:20.584Z,2.04
2022-12-31T13:18:59.190Z,2.56
2022-12-31T13:21:50.109Z,1.83
2022-12-31T13:24:38.172Z,2.07
2022-12-31T13:27:18.928Z,2.61
2022-12-31T13:29:47.981Z,2.25
2022-12-31T13:32:24.380Z,2.53
2022-12-31T13:34:57.738Z,2.07
2022-12-31T13:37:40.403Z,1.97
2022-12-31T13:40:30.414Z,1.93
2022-12-31T13:43:16.555Z,2.64
2022-12-31T13:45:48.184Z,2.18
2022-12-31T13:48:32.626Z,1.76
2022-12-31T13:51:13.589Z,2.16
2022-12-31T13:53:54.336Z,1.86
2022-12-31T13:56:29.210Z,2.23
2022-12-31T13:59:25.750Z,3.03
2022-12-31T14:01:56.941Z,2.91
2022-12-31T14:04:32.410Z,3.48
2022-12-31T14:07:10.133Z,2.47
2022-12-31T14:09:36.961Z,3.69
2022-12-31T14:12:23.423Z,1.80
2022-12-31T14:15:05.017Z,1.51
2022-12-31T14:17:38.688Z,1.58
2022-12-31T14:20:37.180Z,1.81
2022-12-31T14:23:22.424Z,2.05
2022-12-31T14:26:00.958Z,1.91
2022-12-31T14:28:46.652Z,1.97
2022-12-31T14:31:39.021Z,2.13
2022-12-31T14:34:24.225Z,1.86
2022-12-31T14:37:10.223Z,1.88
2022-12-31T14:40:00.196Z,1.79
2022-12-31T14:42:45.710Z,1.96
2022-12-31T14:45:18.219Z,2.06
2022-12-31T14:47:58.038Z,1.98
2022-12-31T14:50:30.442Z,1.94
2022-12-31T14:52:59.638Z,1.98
2022-12-31T14:55:32.201Z,1.98
2022-12-31T14:58:28.083Z,2.05
2022-12-31T15:00:58.877Z,2.52
2022-12-31T15:03:31.343Z,2.39
2022-12-31T15:06:22.639Z,2.61
2022-12-31T15:09:37.380Z,2.04
2022-12-31T15:12:30.525Z,1.86
2022-12-31T15:14:59.747Z,2.17
2022-12-31T15:17:29.105Z,1.95
2022-12-31T15:20:01.547Z,1.97
2022-12-31T15:22:43.445Z,2.04
2022-12-31T15:25:40.053Z,1.95
2022-12-31T15:28:30.012Z,2.10
2022-12-31T15:31:04.501Z,1.94
2022-12-31T15:33:37.428Z,2.01
2022-12-31T15:36:34.269Z,2.02
2022-12-31T15:39:20.301Z,2.06
2022-12-31T15:42:36.683Z,2.14
2022-12-31T15:44:38.087Z,2.17
2022-12-31T15:47:14.936Z,1.89
2022-12-31T15:49:46.353Z,2.15
2022-12-31T15:52:41.881Z,2.84
2022-12-31T15:55:22.967Z,2.45
2022-12-31T15:57:50.504Z,2.27
2022-12-31T16:00:23.184Z,2.49
2022-12-31T16:02:54.535Z,2.31
2022-12-31T16:05:27.078Z,2.34
2022-12-31T16:07:59.352Z,2.37
2022-12-31T16:10:31.922Z,2.56
2022-12-31T16:13:00.279Z,4.07
2022-12-31T16:15:31.239Z,3.53
2022-12-31T16:18:10.233Z,3.87
2022-12-31T16:20:43.368Z,3.88
2022-12-31T16:23:21.195Z,3.40
2022-12-31T16:25:50.853Z,3.28
2022-12-31T16:28:24.884Z,3.47
2022-12-31T16:31:07.250Z,3.66
2022-12-31T16:33:34.143Z,3.63
2022-12-31T16:36:02.057Z,4.11
2022-12-31T16:38:34.674Z,4.11
2022-12-31T16:41:01.091Z,3.84
2022-12-31T16:43:36.826Z,5.10
2022-12-31T16:46:21.486Z,4.81
2022-12-31T16:49:01.849Z,4.42
2022-12-31T16:51:35.785Z,5.98
2022-12-31T16:54:03.235Z,5.05
2022-12-31T16:56:38.114Z,5.46
2022-12-31T16:59:16.695Z,7.36
2022-12-31T17:01:44.312Z,8.17
2022-12-31T17:04:18.419Z,8.01
2022-12-31T17:06:45.207Z,7.02
2022-12-31T17:09:18.368Z,6.93
2022-12-31T17:11:58.653Z,6.28
2022-12-31T17:14:27.646Z,5.62
2022-12-31T17:17:02.780Z,7.10
2022-12-31T17:19:42.336Z,7.86
2022-12-31T17:22:31.636Z,6.50
2022-12-31T17:25:07.391Z,7.36
2022-12-31T17:27:35.713Z,8.14
2022-12-31T17:30:21.813Z,8.91
2022-12-31T17:32:48.648Z,10.16
2022-12-31T17:35:27.451Z,10.54
2022-12-31T17:37:54.059Z,9.30
2022-12-31T17:40:50.843Z,7.61
2022-12-31T17:43:22.047Z,6.95
2022-12-31T17:45:51.932Z,7.51
2022-12-31T17:48:22.704Z,6.05
2022-12-31T17:50:51.872Z,6.20
2022-12-31T17:53:18.870Z,5.93
2022-12-31T17:55:50.725Z,6.41
2022-12-31T17:58:29.791Z,6.68
2022-12-31T18:00:57.728Z,5.47
2022-12-31T18:03:24.584Z,5.37
2022-12-31T18:05:51.601Z,5.23
2022-12-31T18:08:18.103Z,5.56
2022-12-31T18:10:45.079Z,5.29
2022-12-31T18:13:23.086Z,5.06
2022-12-31T18:15:49.908Z,5.65
2022-12-31T18:18:25.320Z,5.50
2022-12-31T18:21:01.979Z,5.66
2022-12-31T18:23:35.548Z,5.50
2022-12-31T18:26:02.005Z,7.39
2022-12-31T18:28:29.604Z,7.34
2022-12-31T18:30:56.234Z,5.75
2022-12-31T18:33:22.874Z,7.86
2022-12-31T18:36:08.374Z,8.35
2022-12-31T18:38:35.574Z,8.38
2022-12-31T18:41:02.038Z,8.53
2022-12-31T18:43:28.473Z,5.91
2022-12-31T18:45:55.062Z,5.93
2022-12-31T18:48:21.588Z,5.93
2022-12-31T18:50:49.345Z,5.97
2022-12-31T18:53:22.174Z,6.61
2022-12-31T18:55:57.263Z,6.39
2022-12-31T18:58:24.258Z,6.18
2022-12-31T19:00:51.908Z,5.97
2022-12-31T19:03:24.630Z,6.32
2022-12-31T19:05:51.536Z,6.07
2022-12-31T19:08:19.303Z,6.17
2022-12-31T19:10:47.612Z,7.09
2022-12-31T19:13:16.891Z,6.33
2022-12-31T19:15:51.644Z,7.26
2022-12-31T19:18:18.664Z,5.28
2022-12-31T19:20:46.152Z,5.30
2022-12-31T19:23:18.684Z,5.35
2022-12-31T19:25:46.882Z,7.66
2022-12-31T19:28:25.258Z,7.42
2022-12-31T19:30:52.403Z,9.39
2022-12-31T19:33:19.673Z,8.75
2022-12-31T19:35:46.360Z,7.25
2022-12-31T19:38:22.283Z,7.47
2022-12-31T19:40:50.407Z,7.19
2022-12-31T19:43:19.557Z,6.83
2022-12-31T19:45:46.612Z,7.04
2022-12-31T19:48:18.699Z,7.65
2022-12-31T19:50:47.940Z,6.84
2022-12-31T19:53:19.195Z,7.01
2022-12-31T19:55:46.185Z,7.14
2022-12-31T19:58:21.843Z,6.72
2022-12-31T20:00:55.585Z,6.58
2022-12-31T20:03:25.992Z,5.37
2022-12-31T20:06:01.635Z,5.20
2022-12-31T20:08:28.111Z,5.42
2022-12-31T20:10:54.592Z,5.89
2022-12-31T20:13:21.065Z,6.27
2022-12-31T20:15:47.518Z,6.46
2022-12-31T20:18:14.103Z,6.16
2022-12-31T20:20:49.207Z,6.34
2022-12-31T20:23:18.518Z,6.53
2022-12-31T20:25:44.971Z,7.17
2022-12-31T20:28:11.435Z,6.98
2022-12-31T20:30:38.939Z,7.17
2022-12-31T20:33:05.424Z,7.32
2022-12-31T20:35:31.899Z,6.38
2022-12-31T20:37:58.411Z,6.60
2022-12-31T20:40:24.854Z,7.27
2022-12-31T20:42:51.315Z,7.15
2022-12-31T20:45:17.865Z,7.55
2022-12-31T20:47:44.403Z,7.27
2022-12-31T20:50:12.255Z,7.59
2022-12-31T20:52:39.226Z,7.21
2022-12-31T20:55:06.262Z,7.24
2022-12-31T20:57:33.890Z,8.40
2022-12-31T21:00:01.002Z,7.58
2022-12-31T21:02:40.873Z,7.65
2022-12-31T21:05:09.315Z,7.59
2022-12-31T21:07:35.925Z,6.60
2022-12-31T21:10:02.419Z,6.70
2022-12-31T21:12:28.940Z,6.94
2022-12-31T21:14:55.483Z,7.10
2022-12-31T21:17:21.947Z,7.46
2022-12-31T21:19:48.408Z,7.25
2022-12-31T21:22:14.917Z,7.67
2022-12-31T21:24:41.373Z,7.81
2022-12-31T21:27:07.923Z,11.50
2022-12-31T21:29:35.573Z,8.24
2022-12-31T21:32:03.597Z,7.55
2022-12-31T21:34:30.040Z,7.77
2022-12-31T21:36:56.531Z,8.85
2022-12-31T21:39:23.035Z,7.18
2022-12-31T21:41:49.520Z,7.02
2022-12-31T21:44:16.031Z,7.28
2022-12-31T21:47:00.916Z,7.26
2022-12-31T21:49:28.939Z,6.44
2022-12-31T21:51:55.485Z,6.30
2022-12-31T21:54:21.978Z,7.46
2022-12-31T21:56:48.457Z,6.56
2022-12-31T21:59:14.931Z,8.15
2022-12-31T22:01:42.230Z,7.46
2022-12-31T22:04:28.202Z,7.03
2022-12-31T22:06:55.177Z,7.67
2022-12-31T22:09:21.651Z,7.50
2022-12-31T22:11:48.153Z,7.62
2022-12-31T22:14:14.650Z,8.12
2022-12-31T22:16:41.125Z,7.77
2022-12-31T22:19:07.631Z,11.00
2022-12-31T22:21:34.085Z,9.66
2022-12-31T22:24:00.528Z,8.70
2022-12-31T22:26:28.877Z,10.42
2022-12-31T22:28:55.428Z,11.09
2022-12-31T22:31:23.362Z,13.10
2022-12-31T22:33:50.260Z,8.84
2022-12-31T22:36:22.324Z,10.38
2022-12-31T22:38:50.886Z,8.90
2022-12-31T22:41:21.845Z,8.55
2022-12-31T22:43:50.994Z,7.53
2022-12-31T22:46:23.615Z,7.62
2022-12-31T22:48:51.502Z,7.61
2022-12-31T22:51:19.877Z,7.48
2022-12-31T22:53:46.375Z,7.55
2022-12-31T22:56:15.786Z,8.31
2022-12-31T22:58:42.899Z,8.99
2022-12-31T23:01:23.041Z,8.54
2022-12-31T23:03:52.343Z,14.86
2022-12-31T23:06:21.031Z,11.78
2022-12-31T23:08:47.782Z,15.55
2022-12-31T23:11:14.280Z,41.54
2022-12-31T23:13:49.508Z,56.38
2022-12-31T23:16:16.915Z,29.20
2022-12-31T23:18:43.439Z,21.89
2022-12-31T23:21:10.114Z,19.22
2022-12-31T23:23:36.568Z,13.38
2022-12-31T23:26:03.120Z,12.68
2022-12-31T23:28:29.615Z,11.11
2022-12-31T23:30:56.144Z,11.62
2022-12-31T23:33:25.634Z,13.38
2022-12-31T23:36:03.094Z,12.39
2022-12-31T23:38:29.574Z,10.44
2022-12-31T23:40:56.087Z,9.70
2022-12-31T23:43:22.831Z,8.12
2022-12-31T23:45:50.837Z,8.39
2022-12-31T23:48:17.301Z,8.11
2022-12-31T23:50:49.165Z,6.94
2022-12-31T23:53:19.035Z,8.64
2022-12-31T23:55:45.498Z,7.20
2022-12-31T23:58:11.957Z,7.79
